createdAt,value
2023-09-23T00:03:15.097Z,72.18
2023-09-23T00:08:19.766Z,72.49
2023-09-23T00:13:23.076Z,71.06
2023-09-23T00:18:28.222Z,71.24
2023-09-23T00:23:32.329Z,70.55
2023-09-23T00:28:35.868Z,70.99
2023-09-23T00:33:41.280Z,71.36
2023-09-23T00:38:44.754Z,70.99
2023-09-23T00:43:49.940Z,71.60
2023-09-23T00:48:54.881Z,71.50
2023-09-23T00:53:58.948Z,72.05
2023-09-23T00:59:02.314Z,72.58
2023-09-23T01:04:09.552Z,72.02
2023-09-23T01:09:15.720Z,71.78
2023-09-23T01:14:22.449Z,71.60
2023-09-23T01:19:28.250Z,72.27
2023-09-23T01:24:33.993Z,72.20
2023-09-23T01:29:38.121Z,72.78
2023-09-23T01:34:42.141Z,72.56
2023-09-23T01:39:49.155Z,73.08
2023-09-23T01:44:52.392Z,73.29
2023-09-23T01:49:56.016Z,72.57
2023-09-23T01:55:00.720Z,71.72
2023-09-23T02:00:05.945Z,71.50
2023-09-23T02:05:10.234Z,71.90
2023-09-23T02:10:16.561Z,72.30
2023-09-23T02:15:19.832Z,73.60
2023-09-23T02:20:23.641Z,72.76
2023-09-23T02:25:28.597Z,72.91
2023-09-23T02:30:33.634Z,72.44
2023-09-23T02:35:36.932Z,73.09
2023-09-23T02:40:45.073Z,72.98
2023-09-23T02:45:50.651Z,73.52
2023-09-23T02:50:55.039Z,72.39
2023-09-23T02:56:10.338Z,72.46
2023-09-23T03:01:16.305Z,71.90
2023-09-23T03:06:19.748Z,71.93
2023-09-23T03:11:28.125Z,71.96
2023-09-23T03:16:31.782Z,72.39
2023-09-23T03:21:36.601Z,71.93
2023-09-23T03:26:42.159Z,72.16
2023-09-23T03:31:45.559Z,71.73
2023-09-23T03:36:48.885Z,72.55
2023-09-23T03:41:53.602Z,73.22
2023-09-23T03:46:56.885Z,73.57
2023-09-23T03:52:00.670Z,73.00
2023-09-23T03:57:07.150Z,73.36
2023-09-23T04:02:10.400Z,74.13
2023-09-23T04:07:17.398Z,73.26
2023-09-23T04:12:22.121Z,73.25
2023-09-23T04:17:26.007Z,73.52
2023-09-23T04:22:29.280Z,74.43
2023-09-23T04:27:34.549Z,75.37
2023-09-23T04:32:40.479Z,75.81
2023-09-23T04:37:44.001Z,75.27
2023-09-23T04:42:49.753Z,74.24
2023-09-23T04:47:53.204Z,73.83
2023-09-23T04:52:56.489Z,73.45
2023-09-23T04:58:01.124Z,73.83
2023-09-23T05:03:04.592Z,74.43
2023-09-23T05:08:11.089Z,74.35
2023-09-23T05:13:19.309Z,74.56
2023-09-23T05:18:24.923Z,74.62
2023-09-23T05:23:28.313Z,74.59
2023-09-23T05:28:33.191Z,74.41
2023-09-23T05:33:36.589Z,74.79
2023-09-23T05:38:40.078Z,74.23
2023-09-23T05:43:45.465Z,74.57
2023-09-23T05:48:50.025Z,74.14
2023-09-23T05:53:53.267Z,74.29
2023-09-23T05:58:58.125Z,74.28
2023-09-23T06:04:01.137Z,74.86
2023-09-23T06:09:05.210Z,74.70
2023-09-23T06:14:10.961Z,74.78
2023-09-23T06:19:14.229Z,74.20
2023-09-23T06:24:17.455Z,74.53
2023-09-23T06:29:22.385Z,73.83
2023-09-23T06:34:25.689Z,74.23
2023-09-23T06:39:29.065Z,74.56
2023-09-23T06:44:33.923Z,75.06
2023-09-23T06:49:36.925Z,76.03
2023-09-23T06:54:40.191Z,75.23
2023-09-23T06:59:46.784Z,75.06
2023-09-23T07:04:50.616Z,74.74
2023-09-23T07:09:53.898Z,74.32
2023-09-23T07:14:59.464Z,74.27
2023-09-23T07:20:03.151Z,74.04
2023-09-23T07:25:07.521Z,73.55
2023-09-23T07:30:14.243Z,72.05
2023-09-23T07:35:19.161Z,69.08
2023-09-23T07:52:49.245Z,55.37
2023-09-23T07:57:53.882Z,56.15
2023-09-23T08:02:57.231Z,55.96
2023-09-23T08:08:01.978Z,53.74
2023-09-23T08:13:05.950Z,53.13
2023-09-23T08:18:09.457Z,50.58
2023-09-23T08:23:14.167Z,50.11
2023-09-23T08:28:17.532Z,48.91
2023-09-23T08:33:21.688Z,46.90
2023-09-23T08:38:26.572Z,46.57
2023-09-23T08:43:38.242Z,43.75
2023-09-23T08:48:41.690Z,43.92
2023-09-23T08:53:48.861Z,42.97
2023-09-23T08:58:53.006Z,42.49
2023-09-23T09:03:56.792Z,40.64
2023-09-23T09:09:04.593Z,39.62
2023-09-23T09:14:08.644Z,40.15
2023-09-23T09:19:12.916Z,39.81
2023-09-23T09:24:18.309Z,38.39
2023-09-23T09:29:21.746Z,37.86
2023-09-23T09:34:27.283Z,38.15
2023-09-23T09:39:35.789Z,38.14
2023-09-23T09:44:39.610Z,35.75
2023-09-23T09:49:44.200Z,36.91
2023-09-23T09:54:49.639Z,36.44
2023-09-23T09:59:54.328Z,34.22
2023-09-23T10:05:04.984Z,34.98
2023-09-23T10:10:14.928Z,34.46
2023-09-23T10:15:27.342Z,34.23
2023-09-23T10:20:35.589Z,33.67
2023-09-23T10:25:44.604Z,34.08
2023-09-23T10:30:58.821Z,33.28
2023-09-23T10:36:03.013Z,33.85
2023-09-23T10:41:07.875Z,32.99
2023-09-23T10:46:12.027Z,32.39
2023-09-23T10:51:16.829Z,33.56
2023-09-23T10:56:24.123Z,31.74
2023-09-23T11:01:27.620Z,32.90
2023-09-23T11:06:31.777Z,31.65
2023-09-23T11:11:38.507Z,30.51
2023-09-23T11:16:46.138Z,30.54
2023-09-23T11:21:49.724Z,30.08
2023-09-23T11:26:55.748Z,31.42
2023-09-23T11:31:59.280Z,30.42
2023-09-23T11:37:02.855Z,30.79
2023-09-23T11:42:07.740Z,30.36
2023-09-23T16:37:37.343Z,44.52
2023-09-23T16:42:40.581Z,44.66
2023-09-23T16:47:45.318Z,44.79
2023-09-23T16:52:50.176Z,45.07
2023-09-23T16:57:53.431Z,45.34
2023-09-23T17:02:56.710Z,45.73
2023-09-23T17:08:01.506Z,45.97
2023-09-23T17:13:04.805Z,47.14
2023-09-23T17:18:09.016Z,47.75
2023-09-23T17:23:13.850Z,48.31
2023-09-23T17:28:17.110Z,48.80
2023-09-23T17:33:20.591Z,49.01
2023-09-23T17:38:25.565Z,49.33
2023-09-23T17:43:28.807Z,49.38
2023-09-23T17:48:32.067Z,49.90
2023-09-23T17:53:36.920Z,50.64
2023-09-23T17:58:40.193Z,50.63
2023-09-23T18:03:44.256Z,51.45
2023-09-23T18:08:49.199Z,51.86
2023-09-23T18:13:52.686Z,52.20
2023-09-23T18:18:56.161Z,52.74
2023-09-23T18:24:00.913Z,53.12
2023-09-23T18:29:04.725Z,53.89
2023-09-23T18:34:09.106Z,54.42
2023-09-23T18:39:13.735Z,54.75
2023-09-23T18:44:17.002Z,54.93
2023-09-23T18:49:20.237Z,56.28
2023-09-23T18:54:25.141Z,56.65
2023-09-23T18:59:29.557Z,57.12
2023-09-23T19:04:33.688Z,57.33
2023-09-23T19:09:40.853Z,57.49
2023-09-23T19:14:44.115Z,57.56
2023-09-23T19:19:47.975Z,57.83
2023-09-23T19:24:52.924Z,58.07
2023-09-23T19:29:56.354Z,57.85
2023-09-23T19:35:00.677Z,58.45
2023-09-23T19:40:06.469Z,59.98
2023-09-23T19:45:10.774Z,59.27
2023-09-23T19:50:15.157Z,59.25
2023-09-23T19:55:20.682Z,61.00
2023-09-23T20:00:29.351Z,60.01
2023-09-23T20:05:32.762Z,60.38
2023-09-23T20:10:38.049Z,61.00
2023-09-23T20:15:42.009Z,61.51
2023-09-23T20:20:49.243Z,62.24
2023-09-23T20:25:54.038Z,61.62
2023-09-23T20:31:00.570Z,61.17
2023-09-23T20:36:04.488Z,61.00
2023-09-23T20:41:09.167Z,61.55
2023-09-23T20:46:12.624Z,63.03
2023-09-23T20:51:17.763Z,62.75
2023-09-23T20:56:22.402Z,62.21
2023-09-23T21:01:25.805Z,62.91
2023-09-23T21:06:29.482Z,63.92
2023-09-23T21:11:36.336Z,64.43
2023-09-23T21:16:39.573Z,63.74
2023-09-23T21:21:42.743Z,64.46
2023-09-23T21:26:47.363Z,64.50
2023-09-23T21:31:50.602Z,63.78
2023-09-23T21:36:53.866Z,63.84
2023-09-23T21:41:58.463Z,65.68
2023-09-23T21:47:01.426Z,66.48
2023-09-23T21:52:04.777Z,64.45
2023-09-23T21:57:09.451Z,64.79
2023-09-23T22:02:12.654Z,64.68
2023-09-23T22:07:15.853Z,64.62
2023-09-23T22:12:20.472Z,64.67
2023-09-23T22:17:26.873Z,65.80
2023-09-23T22:22:30.537Z,64.64
2023-09-23T22:27:35.290Z,65.16
2023-09-23T22:32:38.681Z,66.48
2023-09-23T22:37:42.827Z,67.30
2023-09-23T22:42:48.270Z,67.21
2023-09-23T22:47:51.851Z,67.81
2023-09-23T22:52:55.614Z,68.52
2023-09-23T22:58:00.664Z,68.49
2023-09-23T23:03:05.152Z,69.28
2023-09-23T23:08:09.365Z,70.91
2023-09-23T23:13:14.139Z,70.16
2023-09-23T23:18:17.650Z,71.22
2023-09-23T23:23:20.925Z,71.48
2023-09-23T23:28:26.541Z,70.92
2023-09-23T23:33:30.296Z,70.82
2023-09-23T23:38:33.484Z,70.13
2023-09-23T23:43:38.063Z,71.03
2023-09-23T23:48:41.243Z,71.26
2023-09-23T23:53:44.535Z,72.84
2023-09-23T23:58:49.318Z,73.53
